createdAt,value
2019-01-27T00:00:24.633Z,7.20
2019-01-27T00:02:53.033Z,7.20
2019-01-27T00:05:21.798Z,7.20
2019-01-27T00:07:50.481Z,7.20
2019-01-27T00:10:19.264Z,7.20
2019-01-27T00:12:48.048Z,7.20
2019-01-27T00:15:16.509Z,7.20
2019-01-27T00:17:44.922Z,7.20
2019-01-27T00:20:16.435Z,7.20
2019-01-27T00:22:45.257Z,7.20
2019-01-27T00:25:14.036Z,7.20
2019-01-27T00:27:42.452Z,7.20
2019-01-27T00:30:22.757Z,7.20
2019-01-27T00:32:51.592Z,7.20
2019-01-27T00:35:20.098Z,7.20
2019-01-27T00:37:48.540Z,7.20
2019-01-27T00:40:18.313Z,7.20
2019-01-27T00:42:47.330Z,7.20
2019-01-27T00:45:17.987Z,7.20
2019-01-27T00:47:46.755Z,7.20
2019-01-27T00:50:17.683Z,7.20
2019-01-27T00:52:46.576Z,7.20
2019-01-27T00:55:20.267Z,7.30
2019-01-27T00:57:48.922Z,7.30
2019-01-27T01:00:29.004Z,7.30
2019-01-27T01:02:57.496Z,7.30
2019-01-27T01:05:26.157Z,7.30
2019-01-27T01:07:55.392Z,7.20
2019-01-27T01:10:24.375Z,7.30
2019-01-27T01:12:53.459Z,7.30
2019-01-27T01:15:22.452Z,7.30
2019-01-27T01:17:50.858Z,7.30
2019-01-27T01:20:21.474Z,7.30
2019-01-27T01:22:51.217Z,7.30
2019-01-27T01:25:22.621Z,7.30
2019-01-27T01:27:51.562Z,7.30
2019-01-27T01:30:28.853Z,7.30
2019-01-27T01:32:57.816Z,7.30
2019-01-27T01:35:26.568Z,7.30
2019-01-27T01:37:55.472Z,7.30
2019-01-27T01:40:24.132Z,7.40
2019-01-27T01:42:52.712Z,7.40
2019-01-27T01:45:29.433Z,7.30
2019-01-27T01:47:58.080Z,7.30
2019-01-27T01:50:26.510Z,7.30
2019-01-27T01:52:55.198Z,7.30
2019-01-27T01:55:23.674Z,7.30
2019-01-27T01:57:52.181Z,7.30
2019-01-27T02:00:22.867Z,7.30
2019-01-27T02:02:51.647Z,7.30
2019-01-27T02:05:20.790Z,7.30
2019-01-27T02:07:49.934Z,7.30
2019-01-27T02:10:20.502Z,7.30
2019-01-27T02:12:49.496Z,7.20
2019-01-27T02:15:20.982Z,7.20
2019-01-27T02:17:49.754Z,7.20
2019-01-27T02:20:18.166Z,7.20
2019-01-27T02:22:46.607Z,7.20
2019-01-27T02:25:15.011Z,7.20
2019-01-27T02:27:43.507Z,7.20
2019-01-27T02:30:13.664Z,7.20
2019-01-27T02:32:42.256Z,7.20
2019-01-27T02:35:11.500Z,7.20
2019-01-27T02:37:40.066Z,7.20
2019-01-27T02:40:10.916Z,7.20
2019-01-27T02:42:39.438Z,7.20
2019-01-27T02:45:12.850Z,7.20
2019-01-27T02:47:41.698Z,7.20
2019-01-27T02:50:11.699Z,7.20
2019-01-27T02:52:40.307Z,7.20
2019-01-27T02:55:09.698Z,7.20
2019-01-27T02:57:38.638Z,7.20
2019-01-27T03:00:15.881Z,7.20
2019-01-27T03:02:44.656Z,7.20
2019-01-27T03:05:24.293Z,7.20
2019-01-27T03:07:52.722Z,7.10
2019-01-27T03:10:21.471Z,7.20
2019-01-27T03:12:49.906Z,7.20
2019-01-27T03:15:18.765Z,7.20
2019-01-27T03:17:47.263Z,7.20
2019-01-27T03:20:15.658Z,7.20
2019-01-27T03:22:44.177Z,7.20
2019-01-27T03:25:15.390Z,7.20
2019-01-27T03:27:43.867Z,7.20
2019-01-27T03:30:24.599Z,7.20
2019-01-27T03:32:53.363Z,7.20
2019-01-27T03:35:21.900Z,7.20
2019-01-27T03:37:50.743Z,7.20
2019-01-27T03:40:19.999Z,7.20
2019-01-27T03:42:48.678Z,7.20
2019-01-27T03:45:19.772Z,7.30
2019-01-27T03:47:48.642Z,7.30
2019-01-27T03:50:21.219Z,7.30
2019-01-27T03:52:49.795Z,7.30
2019-01-27T03:55:21.277Z,7.30
2019-01-27T03:57:50.147Z,7.30
2019-01-27T04:00:20.801Z,7.30
2019-01-27T04:02:49.869Z,7.30
2019-01-27T04:05:18.922Z,7.30
2019-01-27T04:07:47.401Z,7.30
2019-01-27T04:10:18.507Z,7.20
2019-01-27T04:12:46.983Z,7.20
2019-01-27T04:15:16.069Z,7.20
2019-01-27T04:17:44.939Z,7.20
2019-01-27T04:20:15.845Z,7.20
2019-01-27T04:22:44.461Z,7.20
2019-01-27T04:25:13.976Z,7.20
2019-01-27T04:27:42.427Z,7.20
2019-01-27T04:30:14.455Z,7.20
2019-01-27T04:32:43.193Z,7.20
2019-01-27T04:35:13.123Z,7.20
2019-01-27T04:37:41.697Z,7.20
2019-01-27T04:40:13.559Z,7.20
2019-01-27T04:42:42.325Z,7.20
2019-01-27T04:45:13.573Z,7.20
2019-01-27T04:47:42.263Z,7.20
2019-01-27T04:50:13.131Z,7.30
2019-01-27T04:52:42.000Z,7.30
2019-01-27T04:55:16.175Z,7.30
2019-01-27T04:57:44.787Z,7.20
2019-01-27T05:00:15.935Z,7.20
2019-01-27T05:02:46.034Z,7.20
2019-01-27T05:05:14.942Z,7.20
2019-01-27T05:07:43.352Z,7.30
2019-01-27T05:10:13.528Z,7.20
2019-01-27T05:12:41.941Z,7.30
2019-01-27T05:15:13.889Z,7.30
2019-01-27T05:17:42.303Z,7.30
2019-01-27T05:20:12.330Z,7.30
2019-01-27T05:22:40.830Z,7.20
2019-01-27T05:25:12.667Z,7.20
2019-01-27T05:27:41.412Z,7.20
2019-01-27T05:30:12.961Z,7.20
2019-01-27T05:32:41.867Z,7.30
2019-01-27T05:35:11.128Z,7.30
2019-01-27T05:37:39.830Z,7.30
2019-01-27T05:40:17.030Z,7.30
2019-01-27T05:42:45.731Z,7.30
2019-01-27T05:45:16.153Z,7.30
2019-01-27T05:47:44.918Z,7.30
2019-01-27T05:50:14.928Z,7.30
2019-01-27T05:52:43.620Z,7.30
2019-01-27T05:55:17.410Z,7.30
2019-01-27T05:57:45.990Z,7.30
2019-01-27T06:00:33.642Z,7.30
2019-01-27T06:03:02.051Z,7.30
2019-01-27T06:05:30.796Z,7.30
2019-01-27T06:07:59.485Z,7.20
2019-01-27T06:10:27.935Z,7.30
2019-01-27T06:12:56.335Z,7.30
2019-01-27T06:15:24.946Z,7.30
2019-01-27T06:17:53.415Z,7.30
2019-01-27T06:20:21.923Z,7.30
2019-01-27T06:22:50.335Z,7.20
2019-01-27T06:25:20.316Z,7.30
2019-01-27T06:27:48.718Z,7.30
2019-01-27T06:30:20.142Z,7.30
2019-01-27T06:32:53.214Z,7.30
2019-01-27T06:35:21.676Z,7.30
2019-01-27T06:37:50.114Z,7.30
2019-01-27T06:40:18.569Z,7.30
2019-01-27T06:42:47.108Z,7.30
2019-01-27T06:45:15.919Z,7.30
2019-01-27T06:47:45.109Z,7.30
2019-01-27T06:50:14.547Z,7.30
2019-01-27T06:52:43.081Z,7.30
2019-01-27T06:55:17.359Z,7.40
2019-01-27T06:57:46.207Z,7.40
2019-01-27T07:00:36.003Z,7.40
2019-01-27T07:03:22.066Z,7.40
2019-01-27T07:05:52.398Z,7.40
2019-01-27T07:08:25.677Z,7.40
2019-01-27T07:11:01.494Z,7.40
2019-01-27T07:13:31.686Z,7.40
2019-01-27T07:16:10.827Z,7.40
2019-01-27T07:18:43.697Z,7.40
2019-01-27T07:21:16.438Z,7.40
2019-01-27T07:24:01.646Z,7.50
2019-01-27T07:26:40.875Z,7.50
2019-01-27T07:29:20.038Z,7.50
2019-01-27T07:32:08.394Z,7.50
2019-01-27T07:34:58.211Z,7.60
2019-01-27T07:37:28.761Z,7.50
2019-01-27T07:40:02.046Z,7.50
2019-01-27T07:42:34.815Z,7.50
2019-01-27T07:45:20.495Z,7.50
2019-01-27T07:48:02.346Z,7.50
2019-01-27T07:50:38.348Z,7.50
2019-01-27T07:53:08.505Z,7.60
2019-01-27T07:55:55.631Z,7.60
2019-01-27T07:58:29.173Z,7.60
2019-01-27T08:01:11.298Z,7.50
2019-01-27T08:03:53.823Z,7.50
2019-01-27T08:06:23.930Z,7.50
2019-01-27T08:08:57.306Z,7.50
2019-01-27T08:11:39.366Z,7.50
2019-01-27T08:14:27.774Z,7.50
2019-01-27T08:17:03.675Z,7.60
2019-01-27T08:19:52.066Z,7.60
2019-01-27T08:22:25.299Z,7.50
2019-01-27T08:25:11.974Z,7.60
2019-01-27T08:27:42.386Z,7.60
2019-01-27T08:30:18.958Z,7.60
2019-01-27T08:32:52.024Z,7.60
2019-01-27T08:35:34.338Z,7.60
2019-01-27T08:38:19.615Z,7.60
2019-01-27T08:40:55.814Z,7.70
2019-01-27T08:43:41.217Z,7.60
2019-01-27T08:46:11.589Z,7.70
2019-01-27T08:48:39.997Z,7.70
2019-01-27T08:51:08.841Z,7.70
2019-01-27T08:53:37.249Z,7.70
2019-01-27T08:56:06.122Z,7.70
2019-01-27T08:58:34.531Z,7.80
2019-01-27T09:01:04.928Z,7.80
2019-01-27T09:03:34.990Z,7.80
2019-01-27T09:06:05.326Z,7.80
2019-01-27T09:08:41.334Z,7.90
2019-01-27T09:11:11.412Z,7.90
2019-01-27T09:13:59.448Z,8.00
2019-01-27T09:16:45.487Z,8.00
2019-01-27T09:19:15.615Z,8.00
2019-01-27T09:22:03.879Z,8.00
2019-01-27T09:24:36.799Z,8.00
2019-01-27T09:27:09.857Z,8.00
2019-01-27T09:29:48.702Z,8.00
2019-01-27T09:32:18.880Z,8.00
2019-01-27T09:34:48.946Z,8.00
2019-01-27T09:37:22.248Z,8.00
2019-01-27T09:39:55.450Z,8.00
2019-01-27T09:42:28.218Z,8.00
2019-01-27T09:44:58.339Z,8.00
2019-01-27T09:47:34.039Z,8.10
2019-01-27T09:50:04.434Z,8.10
2019-01-27T09:52:34.508Z,8.00
2019-01-27T09:55:07.518Z,8.00
2019-01-27T09:57:50.055Z,8.00
2019-01-27T10:00:33.458Z,8.10
2019-01-27T10:03:12.821Z,8.10
2019-01-27T10:05:48.769Z,8.10
2019-01-27T10:08:30.980Z,8.00
2019-01-27T10:11:01.298Z,8.00
2019-01-27T10:13:31.377Z,8.10
2019-01-27T10:16:07.348Z,8.00
2019-01-27T10:18:40.468Z,8.00
2019-01-27T10:21:13.547Z,8.10
2019-01-27T10:23:55.934Z,8.10
2019-01-27T10:26:35.486Z,8.10
2019-01-27T10:29:08.796Z,8.10
2019-01-27T10:31:42.286Z,8.10
2019-01-27T10:34:21.610Z,8.20
2019-01-27T10:36:51.653Z,8.20
2019-01-27T10:39:30.771Z,8.20
2019-01-27T10:42:16.663Z,8.20
2019-01-27T10:44:46.756Z,8.10
2019-01-27T10:47:16.802Z,8.10
2019-01-27T10:49:47.192Z,8.10
2019-01-27T10:52:17.251Z,8.00
2019-01-27T10:54:47.672Z,8.10
2019-01-27T10:57:17.970Z,8.00
2019-01-27T10:59:57.418Z,8.10
2019-01-27T11:02:36.702Z,8.10
2019-01-27T11:05:33.721Z,8.00
2019-01-27T11:08:04.038Z,8.00
2019-01-27T11:10:34.660Z,8.00
2019-01-27T11:13:16.976Z,8.00
2019-01-27T11:15:59.416Z,7.90
2019-01-27T11:18:41.933Z,7.90
2019-01-27T11:21:12.291Z,7.90
2019-01-27T11:23:57.662Z,7.90
2019-01-27T11:26:33.646Z,7.90
2019-01-27T11:29:09.478Z,7.90
2019-01-27T11:31:42.493Z,7.90
2019-01-27T11:34:12.906Z,7.80
2019-01-27T11:36:52.641Z,7.80
2019-01-27T11:39:32.045Z,7.80
2019-01-27T11:42:07.918Z,7.80
2019-01-27T11:44:53.094Z,7.80
2019-01-27T11:47:23.737Z,7.80
2019-01-27T11:49:54.151Z,7.80
2019-01-27T11:52:23.302Z,7.80
2019-01-27T11:54:51.742Z,7.70
2019-01-27T11:57:20.157Z,7.70
2019-01-27T11:59:48.904Z,7.70
2019-01-27T12:02:17.382Z,7.80
2019-01-27T12:04:46.163Z,7.80
2019-01-27T12:07:14.566Z,7.80
2019-01-27T12:09:43.347Z,7.80
2019-01-27T12:12:12.006Z,7.90
2019-01-27T12:14:40.450Z,7.90
2019-01-27T12:17:08.854Z,7.80
2019-01-27T12:19:40.323Z,7.90
2019-01-27T12:22:07.487Z,7.90
2019-01-27T12:24:35.965Z,7.90
2019-01-27T12:27:04.698Z,7.90
2019-01-27T12:29:33.146Z,7.90
2019-01-27T12:32:01.562Z,7.80
2019-01-27T12:34:30.215Z,7.80
2019-01-27T12:36:58.978Z,7.80
2019-01-27T12:39:27.668Z,7.80
2019-01-27T12:41:56.247Z,7.90
2019-01-27T12:44:24.651Z,7.80
2019-01-27T12:46:53.394Z,7.80
2019-01-27T12:49:21.809Z,7.80
2019-01-27T12:51:50.400Z,7.80
2019-01-27T12:54:18.820Z,7.70
2019-01-27T12:56:47.624Z,7.70
2019-01-27T12:59:16.535Z,7.70
2019-01-27T13:01:45.322Z,7.70
2019-01-27T13:04:14.010Z,7.60
2019-01-27T13:06:42.793Z,7.60
2019-01-27T13:09:11.274Z,7.60
2019-01-27T13:11:40.049Z,7.60
2019-01-27T13:14:08.756Z,7.60
2019-01-27T13:16:37.207Z,7.60
2019-01-27T13:19:05.703Z,7.60
2019-01-27T13:21:34.485Z,7.60
2019-01-27T13:24:03.184Z,7.60
2019-01-27T13:26:31.589Z,7.60
2019-01-27T13:29:00.340Z,7.60
2019-01-27T13:31:28.786Z,7.60
2019-01-27T13:33:57.205Z,7.60
2019-01-27T13:36:25.694Z,7.60
2019-01-27T13:38:54.456Z,7.50
2019-01-27T13:41:23.271Z,7.60
2019-01-27T13:43:51.678Z,7.60
2019-01-27T13:46:20.121Z,7.60
2019-01-27T13:48:48.531Z,7.60
2019-01-27T13:51:16.935Z,7.60
2019-01-27T13:53:45.378Z,7.60
2019-01-27T13:56:14.337Z,7.60
2019-01-27T13:58:44.165Z,7.50
2019-01-27T14:01:12.571Z,7.60
2019-01-27T14:03:41.011Z,7.50
2019-01-27T14:06:09.699Z,7.50
2019-01-27T14:08:38.476Z,7.50
2019-01-27T14:11:06.984Z,7.60
2019-01-27T14:13:35.419Z,7.60
2019-01-27T14:16:04.526Z,7.60
2019-01-27T14:18:33.221Z,7.70
2019-01-27T14:21:01.912Z,7.70
2019-01-27T14:23:30.750Z,7.70
2019-01-27T14:25:59.480Z,7.70
2019-01-27T14:28:28.005Z,7.70
2019-01-27T14:30:56.741Z,7.80
2019-01-27T14:33:25.205Z,7.70
2019-01-27T14:35:54.015Z,7.80
2019-01-27T14:38:22.802Z,7.80
2019-01-27T14:40:51.485Z,7.80
2019-01-27T14:43:20.286Z,7.70
2019-01-27T14:45:48.705Z,7.70
2019-01-27T14:48:17.387Z,7.70
2019-01-27T14:50:48.166Z,7.70
2019-01-27T14:53:16.974Z,7.70
2019-01-27T14:55:45.513Z,7.60
2019-01-27T14:58:14.540Z,7.60
2019-01-27T15:00:44.819Z,7.60
2019-01-27T15:03:13.954Z,7.50
2019-01-27T15:05:42.375Z,7.60
2019-01-27T15:08:10.987Z,7.50
2019-01-27T15:10:39.907Z,7.60
2019-01-27T15:13:09.076Z,7.50
2019-01-27T15:15:37.912Z,7.50
2019-01-27T15:18:06.979Z,7.60
2019-01-27T15:20:38.736Z,7.60
2019-01-27T15:23:07.434Z,7.60
2019-01-27T15:25:36.238Z,7.60
2019-01-27T15:28:04.982Z,7.60
2019-01-27T15:30:36.353Z,7.60
2019-01-27T15:33:06.131Z,7.60
2019-01-27T15:35:34.653Z,7.60
2019-01-27T15:38:03.138Z,7.60
2019-01-27T15:40:31.916Z,7.60
2019-01-27T15:43:00.690Z,7.60
2019-01-27T15:45:30.553Z,7.60
2019-01-27T15:47:59.315Z,7.60
2019-01-27T15:50:36.414Z,7.60
2019-01-27T15:53:06.649Z,7.60
2019-01-27T15:55:37.877Z,7.60
2019-01-27T15:58:07.260Z,7.60
2019-01-27T16:00:37.199Z,7.40
2019-01-27T16:03:06.093Z,7.40
2019-01-27T16:05:34.582Z,7.30
2019-01-27T16:08:03.046Z,7.20
2019-01-27T16:10:31.560Z,7.10
2019-01-27T16:13:00.382Z,7.00
2019-01-27T16:15:37.926Z,7.00
2019-01-27T16:18:07.278Z,7.00
2019-01-27T16:20:36.082Z,6.90
2019-01-27T16:23:09.778Z,6.90
2019-01-27T16:25:38.566Z,6.90
2019-01-27T16:28:07.042Z,6.90
2019-01-27T16:30:53.580Z,7.00
2019-01-27T16:33:35.964Z,6.90
2019-01-27T16:36:05.146Z,6.90
2019-01-27T16:38:33.654Z,6.90
2019-01-27T16:41:02.413Z,6.90
2019-01-27T16:43:31.108Z,6.90
2019-01-27T16:46:00.078Z,6.90
2019-01-27T16:48:28.478Z,6.90
2019-01-27T16:50:56.972Z,6.90
2019-01-27T16:53:25.441Z,6.90
2019-01-27T16:55:54.513Z,6.90
2019-01-27T16:58:23.201Z,6.90
2019-01-27T17:00:52.099Z,6.90
2019-01-27T17:03:20.561Z,6.80
2019-01-27T17:05:48.964Z,6.80
2019-01-27T17:08:17.490Z,6.80
2019-01-27T17:10:46.239Z,6.70
2019-01-27T17:13:15.024Z,6.80
2019-01-27T17:15:43.434Z,6.80
2019-01-27T17:18:11.943Z,6.80
2019-01-27T17:20:40.651Z,6.80
2019-01-27T17:23:09.459Z,6.70
2019-01-27T17:25:37.858Z,6.70
2019-01-27T17:28:06.732Z,6.60
2019-01-27T17:30:35.505Z,6.50
2019-01-27T17:33:04.076Z,6.60
2019-01-27T17:35:32.768Z,6.60
2019-01-27T17:38:01.207Z,6.60
2019-01-27T17:40:30.061Z,6.60
2019-01-27T17:42:58.835Z,6.60
2019-01-27T17:45:28.850Z,6.60
2019-01-27T17:47:57.646Z,6.60
2019-01-27T17:50:26.534Z,6.60
2019-01-27T17:52:55.515Z,6.50
2019-01-27T17:55:41.444Z,6.50
2019-01-27T17:58:35.365Z,6.50
2019-01-27T18:01:09.408Z,6.50
2019-01-27T18:03:45.121Z,6.50
2019-01-27T18:06:17.716Z,6.40
2019-01-27T18:08:50.840Z,6.40
2019-01-27T18:11:21.221Z,6.40
2019-01-27T18:13:50.611Z,6.40
2019-01-27T18:16:19.030Z,6.40
2019-01-27T18:18:49.301Z,6.30
2019-01-27T18:21:17.940Z,6.30
2019-01-27T18:23:46.600Z,6.30
2019-01-27T18:26:15.027Z,6.30
2019-01-27T18:28:43.491Z,6.30
2019-01-27T18:31:12.848Z,6.40
2019-01-27T18:33:41.544Z,6.40
2019-01-27T18:36:10.220Z,6.50
2019-01-27T18:38:39.032Z,6.50
2019-01-27T18:41:07.542Z,6.50
2019-01-27T18:43:36.284Z,6.50
2019-01-27T18:46:05.423Z,6.50
2019-01-27T18:48:33.947Z,6.50
2019-01-27T18:51:02.391Z,6.50
2019-01-27T18:53:48.645Z,6.50
2019-01-27T18:56:18.725Z,6.50
2019-01-27T18:58:48.878Z,6.50
2019-01-27T19:01:18.918Z,6.50
2019-01-27T19:03:54.657Z,6.50
2019-01-27T19:06:34.011Z,6.40
2019-01-27T19:09:16.185Z,6.50
2019-01-27T19:11:58.404Z,6.50
2019-01-27T19:14:31.489Z,6.40
2019-01-27T19:17:01.533Z,6.30
2019-01-27T19:19:31.614Z,6.30
2019-01-27T19:22:01.672Z,6.30
2019-01-27T19:24:41.072Z,6.30
2019-01-27T19:27:14.121Z,6.30
2019-01-27T19:30:02.719Z,6.30
2019-01-27T19:32:36.002Z,6.20
2019-01-27T19:35:17.462Z,6.10
2019-01-27T19:37:50.779Z,6.10
2019-01-27T19:40:24.085Z,6.10
2019-01-27T19:42:56.959Z,6.10
2019-01-27T19:45:27.380Z,6.10
2019-01-27T19:47:57.702Z,6.10
2019-01-27T19:50:37.151Z,6.20
2019-01-27T19:53:26.206Z,6.20
2019-01-27T19:55:56.641Z,6.10
2019-01-27T19:58:29.713Z,6.10
2019-01-27T20:01:02.815Z,6.00
2019-01-27T20:03:47.735Z,6.00
2019-01-27T20:06:17.883Z,5.90
2019-01-27T20:08:50.647Z,5.80
2019-01-27T20:11:37.295Z,5.80
2019-01-27T20:14:07.829Z,5.80
2019-01-27T20:16:37.966Z,5.70
2019-01-27T20:19:14.283Z,5.70
2019-01-27T20:21:53.457Z,5.70
2019-01-27T20:24:22.710Z,5.60
2019-01-27T20:26:55.614Z,5.70
2019-01-27T20:29:25.660Z,5.70
2019-01-27T20:31:58.715Z,5.70
2019-01-27T20:34:44.229Z,5.70
2019-01-27T20:37:20.085Z,5.70
2019-01-27T20:39:52.909Z,5.60
2019-01-27T20:42:23.340Z,5.60
2019-01-27T20:44:53.408Z,5.60
2019-01-27T20:47:40.490Z,5.60
2019-01-27T20:50:15.838Z,5.60
2019-01-27T20:52:50.125Z,5.60
2019-01-27T20:55:29.561Z,5.50
2019-01-27T20:58:15.229Z,5.50
2019-01-27T21:00:49.793Z,5.50
2019-01-27T21:03:22.322Z,5.40
2019-01-27T21:05:55.459Z,5.30
2019-01-27T21:08:28.030Z,5.20
2019-01-27T21:11:01.321Z,5.20
2019-01-27T21:13:40.758Z,5.10
2019-01-27T21:16:16.486Z,5.10
2019-01-27T21:18:46.845Z,5.10
2019-01-27T21:21:15.593Z,5.10
2019-01-27T21:23:44.415Z,5.10
2019-01-27T21:26:13.087Z,5.10
2019-01-27T21:28:41.508Z,5.10
2019-01-27T21:31:09.974Z,5.00
2019-01-27T21:33:38.400Z,5.00
2019-01-27T21:36:07.318Z,5.00
2019-01-27T21:38:35.998Z,5.10
2019-01-27T21:41:05.304Z,5.10
2019-01-27T21:43:33.713Z,5.10
2019-01-27T21:46:02.671Z,5.10
2019-01-27T21:48:31.077Z,5.10
2019-01-27T21:50:59.518Z,5.10
2019-01-27T21:53:28.206Z,5.10
2019-01-27T21:55:57.010Z,5.10
2019-01-27T21:58:25.419Z,5.10
2019-01-27T22:00:53.862Z,5.10
2019-01-27T22:03:22.683Z,5.10
2019-01-27T22:05:51.674Z,5.10
2019-01-27T22:08:20.534Z,5.10
2019-01-27T22:10:49.318Z,5.10
2019-01-27T22:13:17.997Z,5.10
2019-01-27T22:15:46.801Z,5.00
2019-01-27T22:18:15.378Z,5.00
2019-01-27T22:20:43.887Z,5.00
2019-01-27T22:23:12.302Z,5.00
2019-01-27T22:25:40.731Z,5.10
2019-01-27T22:28:09.142Z,5.10
2019-01-27T22:30:37.635Z,5.10
2019-01-27T22:33:06.159Z,5.20
2019-01-27T22:35:34.826Z,5.20
2019-01-27T22:38:03.320Z,5.20
2019-01-27T22:40:31.764Z,5.20
2019-01-27T22:43:00.162Z,5.20
2019-01-27T22:45:28.867Z,5.10
2019-01-27T22:47:57.548Z,5.10
2019-01-27T22:50:26.231Z,5.20
2019-01-27T22:52:54.704Z,5.10
2019-01-27T22:55:23.414Z,5.10
2019-01-27T22:57:51.835Z,5.10
2019-01-27T23:00:36.742Z,5.20
2019-01-27T23:03:05.463Z,5.10
2019-01-27T23:05:33.889Z,5.20
2019-01-27T23:08:02.300Z,5.20
2019-01-27T23:10:31.082Z,5.20
2019-01-27T23:12:59.781Z,5.20
2019-01-27T23:15:28.415Z,5.30
2019-01-27T23:17:56.814Z,5.30
2019-01-27T23:20:25.274Z,5.30
2019-01-27T23:22:53.999Z,5.20
2019-01-27T23:25:22.413Z,5.20
2019-01-27T23:27:51.165Z,5.20
2019-01-27T23:30:19.954Z,5.20
2019-01-27T23:32:48.367Z,5.10
2019-01-27T23:35:16.805Z,5.10
2019-01-27T23:37:45.486Z,5.10
2019-01-27T23:40:14.212Z,5.10
2019-01-27T23:42:42.617Z,5.20
2019-01-27T23:45:12.743Z,5.10
2019-01-27T23:47:41.445Z,5.20
2019-01-27T23:50:10.520Z,5.20
2019-01-27T23:52:39.366Z,5.20
2019-01-27T23:55:11.093Z,5.20
2019-01-27T23:57:39.528Z,5.20
